Terminal Aerodrome Forecast
Issued by NWS El Paso, TX

Home | Current Version | Previous Version | Text Only | Print | Product List | Glossary On
Versions: 1 2 3 4 5 6 7 8 9 10 11 12 13
000
FTUS44 KEPZ 282332
TAFELP
TAF
KELP 282332Z 2900/2924 08007KT P6SM FEW070 SCT150 BKN200
     FM290800 04007KT P6SM FEW030 SCT060 BKN150
     FM291300 09010KT P6SM BKN060
     FM292000 12012KT P6SM VCSH BKN050 OVC100=

USA.gov is the U.S. government's official web portal to all federal, state and local government web resources and services.